Time;durP1;ratioP1;P1;durP2;ratioP2;P2;SDS_P1;SDS_P2;PMS_P1;PMS_P2;Temp;Humidity;BMP_temperature;BMP_pressure;BME280_temperature;BME280_humidity;BME280_pressure;Samples;Min_cycle;Max_cycle;Signal;HPM_P1;HPM_P2
2023/10/26 00:02:08;;;;;;;0.50;0.10;;;;;;;13.91;100.00;99334.34;5084394;28;20023;-71
2023/10/26 00:04:33;;;;;;;0.80;0.20;;;;;;;13.96;100.00;99341.63;5088150;28;20402;-70
2023/10/26 00:07:00;;;;;;;0.75;0.17;;;;;;;13.93;100.00;99336.78;5088824;28;20040;-70
2023/10/26 00:09:26;;;;;;;0.30;0.20;;;;;;;13.94;100.00;99335.78;5084904;28;20034;-70
2023/10/26 00:11:52;;;;;;;1.85;0.40;;;;;;;13.95;100.00;99329.53;5067845;28;20027;-70
2023/10/26 00:14:17;;;;;;;2.17;0.20;;;;;;;14.00;100.00;99331.59;5086123;28;20425;-70
2023/10/26 00:16:43;;;;;;;3.70;0.63;;;;;;;14.01;100.00;99335.81;5078803;28;20386;-70
2023/10/26 00:19:08;;;;;;;0.77;0.20;;;;;;;14.03;100.00;99337.25;5083491;28;20020;-70
2023/10/26 00:21:34;;;;;;;2.17;0.30;;;;;;;14.00;100.00;99332.41;5074972;28;20037;-71
2023/10/26 00:24:00;;;;;;;0.60;0.17;;;;;;;13.99;100.00;99324.72;5070567;28;20028;-70
2023/10/26 00:26:25;;;;;;;1.85;0.17;;;;;;;14.00;100.00;99327.16;5082444;28;20387;-69
2023/10/26 00:28:50;;;;;;;5.07;0.30;;;;;;;13.99;100.00;99319.50;5089036;28;20391;-69
2023/10/26 00:31:16;;;;;;;1.75;0.40;;;;;;;13.92;100.00;99320.25;5082030;28;20377;-70
2023/10/26 00:33:41;;;;;;;0.80;0.20;;;;;;;13.90;100.00;99316.22;5087576;28;20521;-70
2023/10/26 00:36:07;;;;;;;0.77;0.20;;;;;;;13.93;100.00;99310.59;5088436;28;20028;-70
2023/10/26 00:38:33;;;;;;;1.67;0.30;;;;;;;13.92;100.00;99319.47;5089452;28;20039;-70
2023/10/26 00:40:58;;;;;;;3.35;0.20;;;;;;;13.84;100.00;99322.22;5086634;28;20032;-71
2023/10/26 00:43:25;;;;;;;6.65;0.35;;;;;;;13.84;100.00;99317.00;5080440;28;20480;-71
2023/10/26 00:45:52;;;;;;;0.88;0.20;;;;;;;13.87;100.00;99324.47;5093828;28;20028;-71
2023/10/26 00:48:19;;;;;;;2.47;0.22;;;;;;;13.85;100.00;99316.81;5073179;28;20436;-71
2023/10/26 00:50:44;;;;;;;0.73;0.20;;;;;;;13.86;100.00;99325.47;5091337;28;20028;-71
2023/10/26 00:53:11;;;;;;;4.18;0.20;;;;;;;13.84;100.00;99324.84;5097765;28;20042;-71
2023/10/26 00:55:39;;;;;;;1.70;0.30;;;;;;;13.85;100.00;99316.81;5088517;28;20076;-71
2023/10/26 00:58:05;;;;;;;1.27;0.35;;;;;;;13.92;100.00;99319.47;5090655;28;20028;-71
2023/10/26 01:00:31;;;;;;;2.72;0.30;;;;;;;13.92;100.00;99317.66;5096936;28;20072;-70
2023/10/26 01:02:57;;;;;;;0.93;0.20;;;;;;;13.89;100.00;99314.59;5091886;28;20028;-71
2023/10/26 01:05:22;;;;;;;2.05;0.40;;;;;;;13.89;100.00;99310.19;5094510;28;20056;-71
2023/10/26 01:07:47;;;;;;;2.83;0.30;;;;;;;13.97;100.00;99314.44;5079404;28;20021;-70
2023/10/26 01:10:13;;;;;;;3.30;0.30;;;;;;;14.02;100.00;99314.69;5087475;28;20459;-70
2023/10/26 01:12:39;;;;;;;1.88;0.20;;;;;;;13.96;100.00;99310.22;5094252;28;20380;-71
2023/10/26 01:15:06;;;;;;;0.30;0.17;;;;;;;13.98;100.00;99308.22;5080331;28;20032;-71
2023/10/26 01:17:34;;;;;;;4.05;0.20;;;;;;;14.08;100.00;99311.28;5079102;28;20108;-70
2023/10/26 01:19:59;;;;;;;0.57;0.20;;;;;;;14.13;100.00;99305.47;5096941;28;20040;-71
2023/10/26 01:22:29;;;;;;;1.75;0.10;;;;;;;14.00;100.00;99300.97;5090913;28;20047;-71
2023/10/26 01:24:55;;;;;;;2.28;0.20;;;;;;;14.10;100.00;99301.41;5082349;28;20039;-70
2023/10/26 01:27:20;;;;;;;0.73;0.20;;;;;;;14.15;100.00;99290.38;5087853;28;20016;-70
2023/10/26 01:29:46;;;;;;;2.63;0.15;;;;;;;14.17;100.00;99289.16;5085726;28;20020;-71
2023/10/26 01:32:11;;;;;;;2.78;0.63;;;;;;;14.06;100.00;99276.63;5095753;28;20043;-70
2023/10/26 01:34:36;;;;;;;1.35;0.13;;;;;;;14.03;100.00;99277.00;5087007;28;20071;-70
2023/10/26 01:37:05;;;;;;;2.50;0.20;;;;;;;14.05;100.00;99275.00;5088968;28;20032;-71
2023/10/26 01:39:34;;;;;;;0.88;0.20;;;;;;;14.05;100.00;99274.19;5090584;28;20104;-72
2023/10/26 01:42:00;;;;;;;1.77;0.20;;;;;;;14.07;100.00;99278.25;5087893;28;20134;-70
2023/10/26 01:44:26;;;;;;;0.85;0.28;;;;;;;14.09;100.00;99278.03;5075119;28;20029;-72
2023/10/26 01:46:51;;;;;;;1.58;0.20;;;;;;;14.08;100.00;99282.47;5082184;28;20121;-71
2023/10/26 01:49:17;;;;;;;1.80;0.20;;;;;;;14.06;100.00;99274.00;5065740;28;20831;-72
2023/10/26 01:51:42;;;;;;;5.35;0.35;;;;;;;14.01;100.00;99271.16;5087499;28;20118;-71
2023/10/26 01:54:08;;;;;;;0.43;0.15;;;;;;;14.03;100.00;99278.81;5082004;28;20032;-70
2023/10/26 01:56:33;;;;;;;1.77;0.30;;;;;;;14.04;100.00;99269.97;5083166;28;20036;-71
2023/10/26 01:58:59;;;;;;;1.88;0.22;;;;;;;13.98;100.00;99274.16;5085637;28;20032;-71
2023/10/26 02:01:25;;;;;;;0.68;0.17;;;;;;;14.03;100.00;99276.19;5088141;28;20047;-71
2023/10/26 02:03:51;;;;;;;1.05;0.20;;;;;;;14.01;100.00;99276.41;5085897;28;20028;-73
2023/10/26 02:06:17;;;;;;;0.88;0.28;;;;;;;14.07;100.00;99273.00;5088068;28;20400;-70
2023/10/26 02:08:43;;;;;;;0.52;0.22;;;;;;;14.09;100.00;99268.38;5085798;28;20074;-71
2023/10/26 02:11:09;;;;;;;0.50;0.20;;;;;;;14.13;100.00;99263.56;5087849;28;20097;-71
2023/10/26 02:13:35;;;;;;;2.92;0.20;;;;;;;14.16;100.00;99266.59;5084437;28;20032;-72
2023/10/26 02:16:01;;;;;;;0.25;0.08;;;;;;;14.17;100.00;99257.72;5087327;28;20032;-72
2023/10/26 02:18:28;;;;;;;2.67;0.30;;;;;;;14.20;100.00;99259.94;5093045;28;20086;-71
2023/10/26 02:20:54;;;;;;;3.17;0.20;;;;;;;14.22;100.00;99260.53;5085859;28;20401;-72
2023/10/26 02:23:21;;;;;;;2.83;0.20;;;;;;;14.27;100.00;99250.28;5068215;28;21247;-70
2023/10/26 02:25:48;;;;;;;0.98;0.20;;;;;;;14.26;100.00;99245.25;5087637;28;20059;-70
2023/10/26 02:28:16;;;;;;;0.52;0.10;;;;;;;14.26;100.00;99248.66;5082171;28;20131;-72
2023/10/26 02:30:43;;;;;;;1.25;0.20;;;;;;;14.26;100.00;99248.66;5069729;28;20075;-70
2023/10/26 02:33:10;;;;;;;1.25;0.25;;;;;;;14.22;100.00;99250.06;5066538;28;20043;-70
2023/10/26 02:35:39;;;;;;;0.68;0.13;;;;;;;14.23;100.00;99246.44;5087343;28;20094;-70
2023/10/26 02:38:04;;;;;;;0.38;0.10;;;;;;;14.28;100.00;99245.84;5068007;28;20054;-72
2023/10/26 02:40:30;;;;;;;1.08;0.20;;;;;;;14.30;100.00;99246.47;5090492;28;20040;-70
2023/10/26 02:42:56;;;;;;;0.82;0.10;;;;;;;14.27;100.00;99244.22;5086550;28;20421;-71
2023/10/26 02:45:22;;;;;;;2.08;0.43;;;;;;;14.22;100.00;99241.41;5087295;28;20050;-70
2023/10/26 02:47:48;;;;;;;5.47;0.17;;;;;;;14.23;100.00;99237.78;5085212;28;20032;-71
2023/10/26 02:50:14;;;;;;;0.80;0.10;;;;;;;14.18;100.00;99237.56;5084956;28;20069;-73
2023/10/26 02:52:40;;;;;;;0.60;0.20;;;;;;;14.19;100.00;99245.22;5068892;28;20379;-72
2023/10/26 02:55:07;;;;;;;0.45;0.10;;;;;;;14.17;100.00;99233.34;5086963;28;20039;-71
2023/10/26 02:57:32;;;;;;;1.55;0.30;;;;;;;14.15;100.00;99246.63;5092663;28;20090;-71
2023/10/26 02:59:58;;;;;;;2.90;0.73;;;;;;;14.19;100.00;99239.97;5092796;28;20024;-71
2023/10/26 03:02:24;;;;;;;2.78;0.20;;;;;;;14.19;100.00;99236.56;5087385;28;20196;-70
2023/10/26 03:04:49;;;;;;;0.88;0.20;;;;;;;14.14;100.00;99241.59;5092437;28;20062;-71
2023/10/26 03:07:22;;;;;;;2.80;0.20;;;;;;;14.09;100.00;99246.63;5080764;28;20076;-73
2023/10/26 03:09:51;;;;;;;2.65;0.43;;;;;;;14.09;100.00;99239.56;5087352;28;20032;-71
2023/10/26 03:12:19;;;;;;;2.42;0.20;;;;;;;14.08;100.00;99239.75;5094540;28;20086;-71
2023/10/26 03:14:44;;;;;;;0.80;0.20;;;;;;;14.06;100.00;99247.81;5079005;28;20460;-72
2023/10/26 03:17:14;;;;;;;2.97;0.28;;;;;;;14.04;100.00;99244.59;5092924;28;20067;-73
2023/10/26 03:19:42;;;;;;;4.70;0.20;;;;;;;14.00;100.00;99245.97;5080245;28;20092;-73
2023/10/26 03:22:08;;;;;;;1.58;0.20;;;;;;;14.04;100.00;99247.19;5086070;28;20028;-73
2023/10/26 03:24:34;;;;;;;0.30;0.10;;;;;;;14.05;100.00;99248.81;5088228;28;20061;-73
2023/10/26 03:27:00;;;;;;;3.03;0.20;;;;;;;14.03;100.00;99257.88;5084034;28;20042;-73
2023/10/26 03:29:26;;;;;;;1.42;0.20;;;;;;;14.03;100.00;99263.09;5085162;28;20040;-73
2023/10/26 03:31:52;;;;;;;1.38;0.20;;;;;;;14.04;100.00;99259.50;5077882;28;20093;-73
2023/10/26 03:34:17;;;;;;;2.75;0.38;;;;;;;14.06;100.00;99245.19;5079275;28;20028;-73
2023/10/26 03:36:43;;;;;;;2.80;0.20;;;;;;;14.04;100.00;99239.34;5088873;28;20412;-73
2023/10/26 03:39:09;;;;;;;1.77;0.20;;;;;;;14.04;100.00;99238.53;5081800;28;20419;-73
2023/10/26 03:41:35;;;;;;;1.23;0.30;;;;;;;14.07;100.00;99233.72;5079444;28;20052;-73
2023/10/26 03:44:01;;;;;;;1.45;0.20;;;;;;;14.04;100.00;99228.88;5083780;28;20369;-72
2023/10/26 03:46:27;;;;;;;0.45;0.10;;;;;;;14.04;100.00;99231.50;5083250;28;20036;-72
2023/10/26 03:48:52;;;;;;;0.60;0.20;;;;;;;14.03;100.00;99216.78;5086477;28;20028;-72
2023/10/26 03:51:18;;;;;;;1.20;0.22;;;;;;;14.04;100.00;99213.16;5081010;28;20340;-72
2023/10/26 03:53:44;;;;;;;1.23;0.20;;;;;;;14.03;100.00;99206.31;5086031;28;20027;-73
2023/10/26 03:56:10;;;;;;;1.85;0.28;;;;;;;14.09;100.00;99217.81;5064098;28;20039;-72
2023/10/26 03:58:36;;;;;;;0.85;0.30;;;;;;;14.11;100.00;99218.41;5082720;28;20036;-72
2023/10/26 04:01:02;;;;;;;1.40;0.30;;;;;;;14.08;100.00;99213.56;5086771;28;20054;-72
2023/10/26 04:03:29;;;;;;;1.17;0.30;;;;;;;14.09;100.00;99210.75;5064905;28;20031;-71
2023/10/26 04:05:55;;;;;;;0.85;0.10;;;;;;;14.08;100.00;99209.16;5083319;28;20135;-72
2023/10/26 04:08:21;;;;;;;0.85;0.20;;;;;;;14.04;100.00;99210.53;5084406;28;20119;-72
2023/10/26 04:10:48;;;;;;;0.60;0.20;;;;;;;14.09;100.00;99217.81;5071785;28;20157;-72
2023/10/26 04:13:13;;;;;;;6.30;0.30;;;;;;;14.10;100.00;99212.38;5071384;28;20047;-72
2023/10/26 04:15:39;;;;;;;0.52;0.10;;;;;;;14.07;100.00;99212.78;5070110;28;20036;-72
2023/10/26 04:18:08;;;;;;;0.55;0.10;;;;;;;14.12;100.00;99217.41;5072457;28;20048;-72
2023/10/26 04:20:35;;;;;;;0.70;0.20;;;;;;;14.17;100.00;99218.44;5078395;28;20146;-72
2023/10/26 04:23:01;;;;;;;2.80;0.22;;;;;;;14.19;100.00;99218.22;5082762;28;20345;-72
2023/10/26 04:25:30;;;;;;;1.38;0.35;;;;;;;14.19;100.00;99221.63;5085471;28;20123;-72
2023/10/26 04:27:56;;;;;;;1.40;0.50;;;;;;;14.22;100.00;99225.69;5083834;28;20420;-72
2023/10/26 04:30:22;;;;;;;2.65;0.32;;;;;;;14.22;100.00;99226.50;5083587;28;20121;-72
2023/10/26 04:32:48;;;;;;;0.77;0.20;;;;;;;14.20;100.00;99222.44;5080865;28;20039;-72
2023/10/26 04:35:14;;;;;;;5.25;0.30;;;;;;;14.23;100.00;99222.88;5087194;28;20024;-72
2023/10/26 04:37:40;;;;;;;0.50;0.20;;;;;;;14.22;100.00;99225.69;5083860;28;20047;-72
2023/10/26 04:40:06;;;;;;;1.00;0.20;;;;;;;14.25;100.00;99222.66;5083567;28;20073;-72
2023/10/26 04:42:32;;;;;;;3.15;0.30;;;;;;;14.20;100.00;99222.44;5090397;28;20044;-72
2023/10/26 04:44:58;;;;;;;1.65;0.20;;;;;;;14.18;100.00;99217.41;5085172;28;20024;-73
2023/10/26 04:47:24;;;;;;;3.72;0.30;;;;;;;14.12;100.00;99209.56;5086820;28;20458;-73
2023/10/26 04:49:50;;;;;;;2.20;0.17;;;;;;;14.13;100.00;99217.22;5092292;28;20074;-73
2023/10/26 04:52:18;;;;;;;1.95;0.40;;;;;;;14.11;100.00;99211.38;5083379;28;20119;-72
2023/10/26 04:54:44;;;;;;;0.60;0.20;;;;;;;14.13;100.00;99211.97;5086640;28;20028;-72
2023/10/26 04:57:10;;;;;;;0.63;0.20;;;;;;;14.20;100.00;99210.16;5094492;28;20047;-72
2023/10/26 04:59:36;;;;;;;0.88;0.25;;;;;;;14.23;100.00;99214.19;5085387;28;20101;-72
2023/10/26 05:02:02;;;;;;;1.38;0.10;;;;;;;14.23;100.00;99216.81;5091903;28;20021;-72
2023/10/26 05:04:28;;;;;;;2.95;0.50;;;;;;;14.22;100.00;99223.06;5067038;28;20047;-72
2023/10/26 05:06:54;;;;;;;1.17;0.17;;;;;;;14.27;100.00;99221.47;5089864;28;20222;-72
2023/10/26 05:09:20;;;;;;;1.85;0.30;;;;;;;14.28;100.00;99220.47;5088267;28;20035;-73
2023/10/26 05:11:46;;;;;;;0.55;0.20;;;;;;;14.31;100.00;99215.81;5067410;28;20044;-72
2023/10/26 05:14:11;;;;;;;1.63;0.20;;;;;;;14.34;100.00;99223.28;5088064;28;20387;-73
2023/10/26 05:16:37;;;;;;;1.77;0.30;;;;;;;14.37;100.00;99228.13;5084718;28;20044;-72
2023/10/26 05:19:03;;;;;;;4.30;0.20;;;;;;;14.36;100.00;99231.75;5088741;28;20506;-72
2023/10/26 05:21:28;;;;;;;3.25;0.10;;;;;;;14.38;100.00;99237.63;5087478;28;20047;-72
2023/10/26 05:23:53;;;;;;;5.78;0.30;;;;;;;14.39;100.00;99237.41;5087590;28;20093;-72
2023/10/26 05:26:19;;;;;;;0.45;0.10;;;;;;;14.40;100.00;99244.28;5093947;28;20042;-72
2023/10/26 05:28:46;;;;;;;0.88;0.20;;;;;;;14.35;100.00;99245.88;5088255;28;20024;-72
2023/10/26 05:31:12;;;;;;;2.45;0.20;;;;;;;14.34;100.00;99242.44;5086585;28;20466;-72
2023/10/26 05:33:38;;;;;;;1.38;0.20;;;;;;;14.33;100.00;99232.97;5073198;28;20032;-73
2023/10/26 05:36:04;;;;;;;2.40;0.20;;;;;;;14.34;100.00;99233.78;5086627;28;20118;-72
2023/10/26 05:38:30;;;;;;;0.77;0.20;;;;;;;14.36;100.00;99232.56;5067279;28;20040;-72
2023/10/26 05:40:56;;;;;;;0.30;0.10;;;;;;;14.39;100.00;99226.13;5083101;28;20535;-73
2023/10/26 05:43:24;;;;;;;1.95;0.35;;;;;;;14.34;100.00;99231.16;5086207;28;20066;-72
2023/10/26 05:45:50;;;;;;;2.55;0.30;;;;;;;14.34;100.00;99233.78;5081931;28;20038;-72
2023/10/26 05:48:18;;;;;;;2.38;0.43;;;;;;;14.32;100.00;99233.97;5062153;28;20028;-73
2023/10/26 05:50:44;;;;;;;1.77;0.47;;;;;;;14.36;100.00;99245.66;5080839;28;20027;-73
2023/10/26 05:53:10;;;;;;;3.83;0.30;;;;;;;14.36;100.00;99242.25;5090361;28;20109;-72
2023/10/26 05:55:36;;;;;;;1.70;0.30;;;;;;;14.39;100.00;99239.22;5070237;28;20388;-72
2023/10/26 05:58:03;;;;;;;1.83;0.40;;;;;;;14.41;100.00;99237.22;5083184;28;20037;-72
2023/10/26 06:00:29;;;;;;;1.00;0.20;;;;;;;14.41;100.00;99239.84;5085677;28;20041;-72
2023/10/26 06:02:54;;;;;;;2.20;0.30;;;;;;;14.44;100.00;99247.34;5090991;28;20364;-72
2023/10/26 06:05:20;;;;;;;0.63;0.10;;;;;;;14.48;100.00;99241.50;5089418;28;20048;-72
2023/10/26 06:07:45;;;;;;;2.00;0.30;;;;;;;14.51;100.00;99242.91;5090039;28;20054;-72
2023/10/26 06:10:11;;;;;;;1.65;0.20;;;;;;;14.51;100.00;99235.06;5090455;28;20024;-73
2023/10/26 06:12:37;;;;;;;2.85;0.30;;;;;;;14.50;100.00;99244.72;5088965;28;20171;-72
2023/10/26 06:15:04;;;;;;;2.88;0.40;;;;;;;14.52;100.00;99240.09;5090765;28;20194;-72
2023/10/26 06:17:29;;;;;;;3.03;0.30;;;;;;;14.52;100.00;99242.72;5089479;28;20038;-72
2023/10/26 06:19:55;;;;;;;1.85;0.22;;;;;;;14.57;100.00;99247.38;5084518;28;20375;-72
2023/10/26 06:22:20;;;;;;;1.75;0.20;;;;;;;14.56;100.00;99253.63;5083792;28;20024;-73
2023/10/26 06:24:46;;;;;;;0.50;0.20;;;;;;;14.59;100.00;99264.50;5080182;28;20028;-73
2023/10/26 06:27:11;;;;;;;4.15;0.40;;;;;;;14.60;100.00;99260.06;5085528;28;20070;-73
2023/10/26 06:29:37;;;;;;;3.80;0.30;;;;;;;14.64;100.00;99255.25;5080937;28;20036;-72
2023/10/26 06:32:02;;;;;;;3.42;0.30;;;;;;;14.64;100.00;99260.47;5084252;28;20055;-72
2023/10/26 06:34:29;;;;;;;0.93;0.20;;;;;;;14.68;100.00;99272.97;5083796;28;20063;-73
2023/10/26 06:36:54;;;;;;;1.50;0.20;;;;;;;14.73;100.00;99280.22;5089673;28;20514;-73
2023/10/26 06:39:20;;;;;;;0.77;0.22;;;;;;;14.78;100.00;99283.88;5076858;28;20071;-73
2023/10/26 06:41:45;;;;;;;2.40;0.40;;;;;;;14.81;100.00;99283.47;5082943;28;20024;-73
2023/10/26 06:44:10;;;;;;;2.53;0.20;;;;;;;14.83;100.00;99291.13;5085197;28;20028;-73
2023/10/26 06:46:36;;;;;;;3.83;0.40;;;;;;;14.84;100.00;99292.75;5078607;28;20051;-73
2023/10/26 06:49:01;;;;;;;2.70;0.30;;;;;;;14.82;100.00;99294.78;5086673;28;20028;-73
2023/10/26 06:51:28;;;;;;;2.83;0.30;;;;;;;14.83;100.00;99286.69;5078989;28;20037;-73
2023/10/26 06:53:54;;;;;;;0.50;0.20;;;;;;;14.84;100.00;99284.88;5086320;28;20086;-73
2023/10/26 06:56:20;;;;;;;3.50;0.30;;;;;;;14.80;100.00;99292.34;5086397;28;20039;-73
2023/10/26 06:58:47;;;;;;;3.25;0.40;;;;;;;14.81;100.00;99288.72;5082187;28;20031;-73
2023/10/26 07:01:12;;;;;;;1.20;0.20;;;;;;;14.84;100.00;99283.06;5067330;28;20115;-72
2023/10/26 07:03:38;;;;;;;2.80;0.30;;;;;;;14.85;100.00;99282.06;5086887;28;20077;-73
2023/10/26 07:06:04;;;;;;;4.10;0.30;;;;;;;14.91;100.00;99291.75;5084236;28;20044;-73
2023/10/26 07:08:32;;;;;;;4.43;0.40;;;;;;;14.96;100.00;99282.47;5080584;28;20036;-72
2023/10/26 07:10:59;;;;;;;2.10;0.35;;;;;;;14.97;100.00;99279.66;5080490;28;20413;-73
2023/10/26 07:13:25;;;;;;;0.82;0.20;;;;;;;15.02;100.00;99281.69;5082378;28;20032;-73
2023/10/26 07:15:51;;;;;;;2.47;0.30;;;;;;;15.06;100.00;99288.13;5089151;28;20039;-73
2023/10/26 07:18:18;;;;;;;1.58;0.20;;;;;;;15.12;100.00;99280.25;5081362;28;20040;-73
2023/10/26 07:20:48;;;;;;;3.03;0.35;;;;;;;15.14;100.00;99278.22;5081098;28;20035;-73
2023/10/26 07:23:16;;;;;;;2.42;0.30;;;;;;;15.13;100.00;99281.06;5086993;28;20514;-73
2023/10/26 07:25:42;;;;;;;3.08;0.50;;;;;;;15.13;100.00;99288.91;5084307;28;20052;-73
2023/10/26 07:28:08;;;;;;;1.17;0.30;;;;;;;15.14;100.00;99280.03;5083830;28;20020;-73
2023/10/26 07:30:42;;;;;;;2.40;0.30;;;;;;;15.16;100.00;99285.88;5067358;28;20437;-73
2023/10/26 07:33:08;;;;;;;1.33;0.30;;;;;;;15.21;100.00;99288.72;5069006;28;20121;-73
2023/10/26 07:35:40;;;;;;;1.52;0.30;;;;;;;15.27;100.00;99293.16;5085918;28;20483;-73
2023/10/26 07:38:06;;;;;;;1.30;0.20;;;;;;;15.34;100.00;99301.84;5088639;28;20032;-73
2023/10/26 07:40:32;;;;;;;1.38;0.20;;;;;;;15.33;100.00;99300.22;5083032;28;20044;-73
2023/10/26 07:42:58;;;;;;;0.50;0.20;;;;;;;15.40;100.00;99293.16;5088557;28;20020;-73
2023/10/26 07:45:26;;;;;;;1.75;0.30;;;;;;;15.44;100.00;99294.38;5082156;28;20043;-72
2023/10/26 07:47:52;;;;;;;0.80;0.20;;;;;;;15.54;100.00;99288.69;5084296;28;20379;-73
2023/10/26 07:50:20;;;;;;;4.20;0.20;;;;;;;15.61;100.00;99292.13;5085687;28;20024;-72
2023/10/26 07:52:47;;;;;;;0.93;0.10;;;;;;;15.59;100.00;99294.97;5084944;28;20101;-73
2023/10/26 07:55:13;;;;;;;2.45;0.20;;;;;;;15.58;100.00;99303.88;5090867;28;20490;-73
2023/10/26 07:57:38;;;;;;;1.20;0.20;;;;;;;15.58;100.00;99296.00;5092083;28;20021;-73
2023/10/26 08:00:04;;;;;;;1.85;0.20;;;;;;;15.69;100.00;99297.16;5093378;28;20024;-73
2023/10/26 08:02:31;;;;;;;4.32;0.20;;;;;;;15.74;100.00;99307.84;5091704;28;20023;-72
2023/10/26 08:04:57;;;;;;;2.47;0.30;;;;;;;15.82;100.00;99301.56;5094129;28;20035;-73
2023/10/26 08:07:22;;;;;;;0.75;0.20;;;;;;;15.87;100.00;99307.81;5078085;28;20044;-73
2023/10/26 08:09:48;;;;;;;1.90;0.20;;;;;;;15.93;100.00;99312.25;5057478;28;20047;-73
2023/10/26 08:12:13;;;;;;;1.02;0.13;;;;;;;16.05;100.00;99322.13;5087761;28;20028;-73
2023/10/26 08:14:39;;;;;;;1.00;0.20;;;;;;;16.09;100.00;99320.66;5089202;28;20033;-73
2023/10/26 08:17:04;;;;;;;2.70;0.30;;;;;;;16.13;100.00;99309.53;5088464;28;20043;-73
2023/10/26 08:19:30;;;;;;;1.95;0.40;;;;;;;16.19;100.00;99313.97;5092249;28;20061;-72
2023/10/26 08:21:55;;;;;;;1.70;0.30;;;;;;;16.22;100.00;99312.75;5089830;28;20032;-73
2023/10/26 08:24:20;;;;;;;3.10;0.30;;;;;;;16.27;100.00;99300.59;5088822;28;20024;-73
2023/10/26 08:26:47;;;;;;;1.92;0.40;;;;;;;16.29;100.00;99296.94;5082371;28;20126;-73
2023/10/26 08:29:12;;;;;;;1.33;0.22;;;;;;;16.34;100.00;99307.66;5092710;28;20032;-73
2023/10/26 08:31:38;;;;;;;5.40;0.40;;;;;;;16.36;100.00;99303.78;5092013;28;20373;-73
2023/10/26 08:34:03;;;;;;;2.75;0.40;;;;;;;16.37;100.00;99315.91;5091069;28;20039;-73
2023/10/26 08:36:29;;;;;;;2.65;0.38;;;;;;;16.34;100.00;99318.16;5069655;28;20569;-73
2023/10/26 08:38:54;;;;;;;2.50;0.45;;;;;;;16.42;100.00;99317.91;5091735;28;20509;-73
2023/10/26 08:41:21;;;;;;;3.45;0.95;;;;;;;16.48;100.00;99317.88;5092428;28;20547;-74
2023/10/26 08:43:46;;;;;;;2.63;0.30;;;;;;;16.59;100.00;99314.56;5087451;28;20032;-73
2023/10/26 08:46:15;;;;;;;3.38;0.70;;;;;;;16.70;100.00;99326.28;5089058;28;20036;-73
2023/10/26 08:48:42;;;;;;;3.00;0.47;;;;;;;16.72;100.00;99323.44;5081787;28;20104;-73
2023/10/26 08:51:08;;;;;;;1.95;0.35;;;;;;;16.71;100.00;99330.53;5091939;28;20028;-73
2023/10/26 08:53:34;;;;;;;1.67;0.40;;;;;;;16.84;100.00;99321.75;5091051;28;20039;-73
2023/10/26 08:56:00;;;;;;;10.88;0.90;;;;;;;16.89;100.00;99330.63;5082943;28;20399;-73
2023/10/26 08:58:26;;;;;;;3.38;0.50;;;;;;;16.90;100.00;99319.06;5084680;28;20028;-73
2023/10/26 09:00:52;;;;;;;4.03;0.30;;;;;;;16.96;100.00;99320.06;5088575;28;20040;-73
2023/10/26 09:03:18;;;;;;;1.65;0.50;;;;;;;16.95;100.00;99312.38;5084888;28;20033;-73
2023/10/26 09:05:56;;;;;;;1.17;0.20;;;;;;;16.88;100.00;99304.53;5090725;28;20063;-73
2023/10/26 09:08:23;;;;;;;2.25;0.40;;;;;;;16.96;100.00;99295.56;5089441;28;20043;-73
2023/10/26 09:10:49;;;;;;;1.65;0.50;;;;;;;17.09;100.00;99292.81;5087188;28;20035;-73
2023/10/26 09:13:23;;;;;;;1.35;0.50;;;;;;;17.11;100.00;99278.41;5069971;28;20056;-72
2023/10/26 09:15:50;;;;;;;1.17;0.30;;;;;;;17.15;100.00;99284.06;5086752;28;20024;-72
2023/10/26 09:18:16;;;;;;;1.75;0.35;;;;;;;17.22;100.00;99269.00;5072776;28;20035;-73
2023/10/26 09:20:43;;;;;;;1.08;0.30;;;;;;;17.26;100.00;99251.78;5086407;28;20072;-72
2023/10/26 09:23:30;;;;;;;1.40;0.30;;;;;;;17.25;100.00;99252.78;5087459;28;20016;-72
2023/10/26 09:26:04;;;;;;;1.45;0.10;;;;;;;17.29;100.00;99271.59;5078681;28;20040;-72
2023/10/26 09:28:42;;;;;;;1.65;0.30;;;;;;;17.34;100.00;99285.72;5082324;28;20025;-72
2023/10/26 09:31:08;;;;;;;2.65;0.22;;;;;;;17.38;100.00;99294.78;5090942;28;20081;-72
2023/10/26 09:33:33;;;;;;;1.55;0.20;;;;;;;17.48;100.00;99307.47;5089679;28;20035;-72
2023/10/26 09:36:13;;;;;;;0.80;0.10;;;;;;;17.60;100.00;99318.88;5091177;28;20024;-72
2023/10/26 09:38:39;;;;;;;2.17;0.20;;;;;;;17.67;100.00;99327.56;5089677;28;20645;-72
2023/10/26 09:41:15;;;;;;;0.80;0.10;;;;;;;17.71;100.00;99343.72;5091450;28;20039;-72
2023/10/26 09:43:40;;;;;;;3.55;0.20;;;;;;;17.73;100.00;99342.50;5087655;28;20081;-72
2023/10/26 09:46:07;;;;;;;2.03;0.10;;;;;;;17.73;100.00;99342.50;5090292;28;20020;-72
2023/10/26 09:48:34;;;;;;;2.25;0.20;;;;;;;17.70;100.00;99321.03;5074589;28;20479;-72
2023/10/26 09:51:00;;;;;;;1.23;0.10;;;;;;;17.71;100.00;99305.03;5084115;28;20062;-72
2023/10/26 09:53:32;;;;;;;0.52;0.10;;;;;;;17.76;100.00;99302.53;5090039;28;20048;-72
2023/10/26 09:56:00;;;;;;;0.15;0.00;;;;;;;17.79;100.00;99303.94;5082774;28;20119;-71
2023/10/26 09:58:43;;;;;;;0.60;0.00;;;;;;;17.88;100.00;99303.44;5083929;28;20194;-72
2023/10/26 10:01:39;;;;;;;0.40;0.10;;;;;;;17.82;100.00;99293.75;5062037;28;20520;-72
2023/10/26 10:04:08;;;;;;;1.30;0.10;;;;;;;17.81;100.00;99270.28;5085392;28;20024;-72
2023/10/26 10:06:54;;;;;;;0.43;0.10;;;;;;;17.73;100.00;99284.53;5078993;28;20056;-72
2023/10/26 10:09:22;;;;;;;0.75;0.30;;;;;;;17.81;100.00;99286.09;5090389;28;20369;-72
2023/10/26 10:12:15;;;;;;;1.27;0.00;;;;;;;17.92;100.00;99284.53;5074265;28;20126;-72
2023/10/26 10:14:54;;;;;;;1.65;0.15;;;;;;;18.07;100.00;99301.56;5065812;28;20411;-73
2023/10/26 10:17:44;;;;;;;0.10;0.00;;;;;;;18.19;100.00;99299.81;5078918;28;20048;-72
2023/10/26 10:20:18;;;;;;;1.85;0.00;;;;;;;18.30;100.00;99305.34;5081685;28;20440;-72
2023/10/26 10:22:48;;;;;;;0.10;0.00;;;;;;;18.33;100.00;99310.19;5061748;28;20492;-72
2023/10/26 10:25:16;;;;;;;0.00;0.00;;;;;;;18.33;100.00;99304.91;5080808;28;20127;-72
2023/10/26 10:27:52;;;;;;;0.47;0.00;;;;;;;18.35;100.00;99306.31;5088113;28;20028;-72
2023/10/26 10:30:21;;;;;;;0.40;0.00;;;;;;;18.42;100.00;99311.50;5080408;28;20514;-72
2023/10/26 10:32:49;;;;;;;1.27;0.00;;;;;;;18.42;100.00;99311.50;5083077;28;20039;-72
2023/10/26 10:35:21;;;;;;;2.50;0.10;;;;;;;18.42;100.00;99307.03;5088516;28;20135;-72
2023/10/26 10:38:20;;;;;;;0.22;0.03;;;;;;;18.41;100.00;99309.88;5072696;28;20028;-72
2023/10/26 10:40:55;;;;;;;2.33;0.10;;;;;;;18.41;100.00;99315.97;5079978;28;20039;-72
2023/10/26 10:43:33;;;;;;;0.30;0.00;;;;;;;18.41;100.00;99317.78;5080695;28;20523;-72
2023/10/26 10:46:20;;;;;;;0.70;0.00;;;;;;;18.43;100.00;99321.78;5087556;28;20039;-72
2023/10/26 10:49:03;;;;;;;1.15;0.10;;;;;;;18.46;100.00;99324.00;5080841;28;20035;-72
2023/10/26 10:51:39;;;;;;;0.73;0.10;;;;;;;18.47;100.00;99332.69;5088436;28;20066;-72
2023/10/26 10:54:06;;;;;;;1.95;0.13;;;;;;;18.47;100.00;99324.78;5083847;28;20160;-72
2023/10/26 10:56:40;;;;;;;2.15;0.05;;;;;;;18.49;100.00;99328.00;5083565;28;20036;-72
2023/10/26 10:59:18;;;;;;;0.55;0.00;;;;;;;18.47;100.00;99324.78;5086999;28;20467;-72
2023/10/26 11:01:45;;;;;;;0.30;0.00;;;;;;;18.48;100.00;99323.75;5086246;28;20066;-72
2023/10/26 11:04:13;;;;;;;0.52;0.00;;;;;;;18.52;100.00;99320.47;5080732;28;20120;-71
2023/10/26 11:06:47;;;;;;;1.50;0.08;;;;;;;18.47;100.00;99322.97;5084910;28;20113;-72
2023/10/26 11:09:24;;;;;;;0.93;0.08;;;;;;;18.44;100.00;99318.13;5088890;28;20031;-72
2023/10/26 11:11:50;;;;;;;0.93;0.00;;;;;;;18.48;100.00;99316.66;5082166;28;20031;-72
2023/10/26 11:14:17;;;;;;;0.15;0.00;;;;;;;18.46;100.00;99308.16;5069643;28;20028;-72
2023/10/26 11:16:44;;;;;;;1.80;0.00;;;;;;;18.47;100.00;99306.31;5083285;28;20055;-72
2023/10/26 11:19:09;;;;;;;3.35;0.00;;;;;;;18.42;100.00;99298.31;5088891;28;20030;-72
2023/10/26 11:21:35;;;;;;;0.68;0.03;;;;;;;18.39;100.00;99304.03;5088219;28;20123;-72
2023/10/26 11:24:01;;;;;;;0.77;0.10;;;;;;;18.38;100.00;99303.22;5089562;28;20491;-72
2023/10/26 11:26:27;;;;;;;1.40;0.08;;;;;;;18.37;100.00;99311.34;5083662;28;20020;-73